Time;durP1;ratioP1;P1;durP2;ratioP2;P2;SDS_P1;SDS_P2;PMS_P1;PMS_P2;Temp;Humidity;BMP_temperature;BMP_pressure;BME280_temperature;BME280_humidity;BME280_pressure;Samples;Min_cycle;Max_cycle;Signal;HPM_P1;HPM_P2
2023/04/25 00:01:24;;;;;;;26.98;6.55;;;16.20;87.90;;;;;;4954200;29;20045;-79
2023/04/25 00:03:50;;;;;;;31.05;6.00;;;16.20;87.70;;;;;;4954215;29;20039;-79
2023/04/25 00:06:17;;;;;;;26.77;6.25;;;16.20;87.80;;;;;;4954286;29;20024;-79
2023/04/25 00:08:43;;;;;;;30.20;5.68;;;16.20;88.00;;;;;;4953946;29;20034;-79
2023/04/25 00:11:09;;;;;;;24.27;6.00;;;16.10;88.00;;;;;;4953951;29;20103;-78
2023/04/25 00:13:35;;;;;;;29.30;6.53;;;16.10;87.90;;;;;;4953910;29;20119;-79
2023/04/25 00:16:02;;;;;;;30.25;6.65;;;16.10;88.60;;;;;;4953787;29;20031;-79
2023/04/25 00:18:29;;;;;;;30.88;5.85;;;16.00;88.10;;;;;;4954982;28;20035;-79
2023/04/25 00:20:55;;;;;;;29.25;6.57;;;16.00;88.00;;;;;;4973464;28;20049;-79
2023/04/25 00:23:21;;;;;;;31.23;6.15;;;16.00;88.20;;;;;;4974791;28;20047;-79
2023/04/25 00:25:49;;;;;;;26.95;5.45;;;16.00;88.40;;;;;;4974245;28;20505;-78
2023/04/25 00:28:15;;;;;;;32.45;6.13;;;16.00;88.40;;;;;;4973217;28;20500;-80
2023/04/25 00:30:41;;;;;;;33.22;7.03;;;16.00;88.50;;;;;;4993480;28;20507;-79
2023/04/25 00:33:07;;;;;;;33.20;5.80;;;15.90;88.20;;;;;;4996223;28;20034;-78
2023/04/25 00:35:34;;;;;;;31.20;6.35;;;15.90;88.30;;;;;;4996221;28;20030;-79
2023/04/25 00:38:00;;;;;;;30.45;6.72;;;15.80;88.40;;;;;;4996009;28;20034;-80
2023/04/25 00:40:26;;;;;;;35.17;6.38;;;15.80;88.90;;;;;;4999501;28;20034;-76
2023/04/25 00:42:53;;;;;;;33.05;6.05;;;15.80;88.80;;;;;;5002433;28;20050;-78
2023/04/25 00:45:19;;;;;;;36.25;6.47;;;15.80;88.70;;;;;;4996903;28;20062;-78
2023/04/25 00:47:45;;;;;;;30.98;7.15;;;15.80;88.90;;;;;;4995961;28;20114;-79
2023/04/25 00:50:12;;;;;;;27.58;6.78;;;15.80;88.80;;;;;;4995586;28;20119;-79
2023/04/25 00:52:43;;;;;;;26.95;6.10;;;15.80;89.40;;;;;;4978143;28;20042;-79
2023/04/25 00:55:11;;;;;;;30.60;5.93;;;15.80;89.30;;;;;;4995675;28;20057;-79
2023/04/25 00:57:37;;;;;;;34.67;6.78;;;15.80;89.20;;;;;;4995530;28;20058;-78
2023/04/25 01:00:05;;;;;;;31.88;6.90;;;15.80;89.10;;;;;;4995750;28;20018;-80
2023/04/25 01:02:33;;;;;;;31.73;6.28;;;15.80;89.10;;;;;;4995942;28;20042;-78
2023/04/25 01:04:58;;;;;;;30.88;6.13;;;15.80;88.90;;;;;;4995716;28;20409;-80
2023/04/25 01:07:25;;;;;;;27.48;5.65;;;15.70;88.80;;;;;;4995984;28;20042;-79
2023/04/25 01:09:52;;;;;;;26.50;5.80;;;15.70;88.80;;;;;;4995793;28;20038;-79
2023/04/25 01:12:18;;;;;;;29.60;6.63;;;15.70;88.80;;;;;;4995698;28;20125;-79
2023/04/25 01:14:44;;;;;;;29.08;6.43;;;15.70;88.60;;;;;;4995407;28;20085;-80
2023/04/25 01:17:10;;;;;;;22.15;5.63;;;15.70;88.60;;;;;;4978471;28;20488;-79
2023/04/25 01:19:36;;;;;;;23.77;6.32;;;15.60;88.30;;;;;;4995348;28;20037;-78
2023/04/25 01:22:03;;;;;;;23.45;5.88;;;15.70;88.70;;;;;;4978197;28;20038;-78
2023/04/25 01:24:30;;;;;;;22.52;6.07;;;15.60;88.30;;;;;;4978471;28;20060;-79
2023/04/25 01:26:57;;;;;;;24.35;6.03;;;15.60;88.20;;;;;;4995268;28;20460;-78
2023/04/25 01:29:24;;;;;;;22.95;5.90;;;15.60;87.80;;;;;;4995379;28;20523;-78
2023/04/25 01:31:51;;;;;;;25.52;6.07;;;15.60;87.30;;;;;;4995055;28;20074;-78
2023/04/25 01:34:16;;;;;;;28.67;6.30;;;15.50;87.00;;;;;;4994877;28;20089;-80
2023/04/25 01:36:42;;;;;;;21.48;6.07;;;15.50;87.00;;;;;;4993912;28;20038;-78
2023/04/25 01:39:08;;;;;;;24.10;6.47;;;15.50;87.00;;;;;;4994873;28;20034;-79
2023/04/25 01:41:36;;;;;;;28.80;6.75;;;15.50;86.80;;;;;;4994298;28;20035;-79
2023/04/25 01:44:03;;;;;;;26.35;6.95;;;15.50;86.90;;;;;;4994577;28;20046;-80
2023/04/25 01:46:29;;;;;;;23.50;6.90;;;15.40;86.20;;;;;;4995295;28;20484;-79
2023/04/25 01:48:54;;;;;;;24.88;6.88;;;15.40;86.20;;;;;;4994887;28;20039;-80
2023/04/25 01:51:20;;;;;;;20.08;6.78;;;15.40;85.90;;;;;;4995098;28;20063;-79
2023/04/25 01:53:46;;;;;;;18.85;6.07;;;15.40;85.90;;;;;;4994750;28;20114;-80
2023/04/25 01:56:11;;;;;;;24.60;6.88;;;15.30;85.50;;;;;;4994461;28;20046;-78
2023/04/25 01:58:37;;;;;;;23.75;6.75;;;15.30;85.30;;;;;;4994886;28;20041;-79
2023/04/25 02:01:03;;;;;;;23.13;6.78;;;15.30;84.90;;;;;;4994503;28;20108;-79
2023/04/25 02:03:31;;;;;;;21.05;6.82;;;15.30;84.80;;;;;;4994538;28;20045;-80
2023/04/25 02:05:56;;;;;;;23.98;8.02;;;15.30;84.50;;;;;;4994308;28;20092;-78
2023/04/25 02:08:22;;;;;;;22.58;8.55;;;15.20;84.30;;;;;;4994213;28;21138;-79
2023/04/25 02:10:48;;;;;;;21.55;7.65;;;15.10;83.90;;;;;;4994358;28;20507;-80
2023/04/25 02:13:13;;;;;;;21.08;7.53;;;15.20;84.00;;;;;;4994371;28;20073;-79
2023/04/25 02:15:39;;;;;;;21.90;7.63;;;15.10;83.90;;;;;;4994260;28;20066;-78
2023/04/25 02:18:06;;;;;;;23.98;7.80;;;15.10;83.90;;;;;;4994095;28;20041;-80
2023/04/25 02:20:32;;;;;;;25.30;7.88;;;15.10;84.00;;;;;;4993855;28;20034;-79
2023/04/25 02:22:58;;;;;;;23.75;6.60;;;15.10;83.90;;;;;;4993962;28;20065;-79
2023/04/25 02:25:23;;;;;;;27.02;6.90;;;15.10;84.00;;;;;;4993859;28;20019;-80
2023/04/25 02:27:51;;;;;;;24.30;7.07;;;15.10;84.20;;;;;;4994163;28;20077;-79
2023/04/25 02:30:16;;;;;;;21.02;5.82;;;15.00;84.10;;;;;;4993642;28;20048;-79
2023/04/25 02:32:42;;;;;;;22.52;5.38;;;15.00;84.50;;;;;;4993918;28;20034;-79
2023/04/25 02:35:08;;;;;;;26.15;5.97;;;15.00;84.80;;;;;;4994207;28;20133;-79
2023/04/25 02:37:37;;;;;;;29.67;5.35;;;14.90;85.10;;;;;;4976598;28;20503;-78
2023/04/25 02:40:04;;;;;;;27.65;5.25;;;15.00;85.30;;;;;;4993175;28;20088;-79
2023/04/25 02:42:30;;;;;;;25.10;5.50;;;14.90;85.70;;;;;;4994233;28;20128;-80
2023/04/25 02:44:56;;;;;;;23.35;5.45;;;15.00;86.10;;;;;;4994469;28;20069;-79
2023/04/25 02:47:21;;;;;;;21.63;5.10;;;14.90;86.10;;;;;;4994088;28;20038;-79
2023/04/25 02:49:47;;;;;;;25.55;5.40;;;15.00;86.50;;;;;;4995472;28;20030;-80
2023/04/25 02:52:13;;;;;;;25.05;5.53;;;15.00;86.80;;;;;;4997071;28;20455;-81
2023/04/25 02:54:40;;;;;;;21.80;5.13;;;15.00;87.00;;;;;;4995898;28;20438;-78
2023/04/25 02:57:06;;;;;;;25.35;5.47;;;15.00;87.00;;;;;;4992796;28;20053;-77
2023/04/25 02:59:32;;;;;;;26.92;5.38;;;15.10;87.20;;;;;;4993689;28;20042;-78
2023/04/25 03:01:58;;;;;;;33.10;6.22;;;15.10;87.30;;;;;;4993899;28;20038;-78
2023/04/25 03:04:24;;;;;;;27.35;5.03;;;15.10;87.50;;;;;;4993770;28;20377;-79
2023/04/25 03:06:53;;;;;;;28.67;4.90;;;15.10;87.60;;;;;;4993525;28;20471;-78
2023/04/25 03:09:19;;;;;;;24.38;4.75;;;15.20;87.60;;;;;;4993268;28;20061;-79
2023/04/25 03:11:45;;;;;;;26.02;5.28;;;15.20;87.60;;;;;;4993390;28;20057;-79
2023/04/25 03:14:11;;;;;;;27.92;6.20;;;15.20;87.70;;;;;;4993336;28;20046;-78
2023/04/25 03:16:37;;;;;;;35.65;5.97;;;15.20;87.80;;;;;;4993738;28;20035;-78
2023/04/25 03:19:03;;;;;;;28.48;5.63;;;15.30;88.00;;;;;;4993678;28;20057;-78
2023/04/25 03:21:32;;;;;;;26.80;5.45;;;15.30;88.10;;;;;;4993506;28;20380;-79
2023/04/25 03:23:58;;;;;;;29.75;5.88;;;15.30;88.20;;;;;;4993617;28;20535;-79
2023/04/25 03:26:24;;;;;;;27.30;6.22;;;15.30;88.20;;;;;;4993372;28;20041;-79
2023/04/25 03:28:50;;;;;;;31.23;5.88;;;15.30;88.90;;;;;;4993409;28;20054;-79
2023/04/25 03:31:16;;;;;;;29.85;4.93;;;15.30;88.40;;;;;;4993072;28;20038;-79
2023/04/25 03:33:41;;;;;;;24.77;5.25;;;15.40;88.50;;;;;;4993522;28;20381;-78
2023/04/25 03:36:08;;;;;;;22.80;5.57;;;15.40;88.50;;;;;;4993558;28;20030;-78
2023/04/25 03:38:33;;;;;;;26.77;5.32;;;15.40;88.40;;;;;;4993377;28;20440;-79
2023/04/25 03:40:59;;;;;;;23.88;5.40;;;15.30;88.20;;;;;;4993517;28;20106;-79
2023/04/25 03:43:25;;;;;;;25.60;5.47;;;15.30;88.30;;;;;;4993277;28;20046;-79
2023/04/25 03:45:51;;;;;;;27.15;4.70;;;15.30;88.20;;;;;;4993097;28;20110;-79
2023/04/25 03:48:16;;;;;;;23.73;5.38;;;15.30;88.40;;;;;;4993243;28;20046;-79
2023/04/25 03:50:42;;;;;;;26.08;5.38;;;15.20;88.00;;;;;;4993194;28;20034;-78
2023/04/25 03:53:08;;;;;;;20.23;4.75;;;15.20;88.00;;;;;;4993168;28;20039;-79
2023/04/25 03:55:33;;;;;;;25.63;5.80;;;15.20;87.90;;;;;;4992964;28;20035;-79
2023/04/25 03:57:59;;;;;;;26.15;6.50;;;15.20;87.90;;;;;;4993273;28;20034;-78
2023/04/25 04:00:25;;;;;;;23.15;6.07;;;15.10;87.70;;;;;;4992963;28;20034;-78
2023/04/25 04:02:51;;;;;;;21.48;6.53;;;15.10;87.60;;;;;;4995728;28;20516;-79
2023/04/25 04:05:16;;;;;;;20.77;6.18;;;15.10;87.10;;;;;;4994766;28;20034;-80
2023/04/25 04:07:42;;;;;;;26.30;6.43;;;15.10;87.40;;;;;;4996674;28;20084;-79
2023/04/25 04:10:10;;;;;;;24.45;6.13;;;15.00;86.90;;;;;;4996581;28;20484;-79
2023/04/25 04:12:36;;;;;;;29.52;6.55;;;15.00;87.10;;;;;;4997024;28;20059;-80
2023/04/25 04:15:03;;;;;;;22.63;6.25;;;15.00;87.00;;;;;;4997129;28;20455;-78
2023/04/25 04:17:30;;;;;;;20.35;5.80;;;14.90;86.80;;;;;;4996831;28;20122;-79
2023/04/25 04:19:56;;;;;;;20.85;7.35;;;14.90;86.90;;;;;;4996638;28;20476;-79
2023/04/25 04:22:23;;;;;;;21.80;5.85;;;14.90;86.60;;;;;;4996673;28;20116;-80
2023/04/25 04:24:49;;;;;;;26.38;6.65;;;14.90;86.50;;;;;;4996548;28;20057;-80
2023/04/25 04:27:19;;;;;;;24.10;6.05;;;14.80;86.30;;;;;;4997297;28;20030;-79
2023/04/25 04:29:45;;;;;;;22.27;6.50;;;14.80;86.30;;;;;;5000152;28;20046;-78
2023/04/25 04:32:12;;;;;;;20.48;6.10;;;14.80;86.20;;;;;;5000386;28;20026;-79
2023/04/25 04:34:39;;;;;;;17.65;5.63;;;14.80;86.10;;;;;;5000819;28;20038;-80
2023/04/25 04:37:05;;;;;;;22.58;7.15;;;14.80;86.10;;;;;;4997059;28;20100;-78
2023/04/25 04:39:31;;;;;;;23.90;6.25;;;14.70;86.40;;;;;;4996283;28;20062;-79
2023/04/25 04:41:56;;;;;;;17.85;6.25;;;14.70;86.30;;;;;;4996217;28;20480;-78
2023/04/25 04:44:22;;;;;;;21.48;6.10;;;14.70;86.30;;;;;;4997101;28;20056;-80
2023/04/25 04:46:48;;;;;;;18.80;5.95;;;14.60;86.20;;;;;;4998210;28;20088;-80
2023/04/25 04:49:14;;;;;;;16.77;5.57;;;14.70;86.30;;;;;;4998137;28;20042;-79
2023/04/25 04:51:41;;;;;;;24.83;5.97;;;14.70;86.30;;;;;;4995989;28;20101;-79
2023/04/25 04:54:06;;;;;;;19.65;5.97;;;14.60;86.10;;;;;;4978281;28;20408;-79
2023/04/25 04:56:32;;;;;;;19.88;6.20;;;14.70;86.30;;;;;;4978486;28;20137;-80
2023/04/25 04:58:58;;;;;;;24.40;5.93;;;14.80;86.20;;;;;;4996201;28;20030;-80
2023/04/25 05:01:25;;;;;;;21.38;5.68;;;14.70;85.90;;;;;;4994820;28;20138;-79
2023/04/25 05:03:51;;;;;;;16.30;5.57;;;14.70;85.80;;;;;;4995640;28;20503;-80
2023/04/25 05:06:19;;;;;;;20.60;7.20;;;14.70;85.70;;;;;;4995424;28;20054;-78
2023/04/25 05:08:45;;;;;;;25.98;6.20;;;14.80;86.10;;;;;;4995449;28;20085;-79
2023/04/25 05:11:11;;;;;;;18.13;5.70;;;14.80;85.80;;;;;;4994281;28;20039;-80
2023/04/25 05:13:37;;;;;;;19.08;6.43;;;14.90;85.70;;;;;;4995367;28;20408;-79
2023/04/25 05:16:02;;;;;;;20.67;6.00;;;15.00;85.40;;;;;;4995110;28;20031;-79
2023/04/25 05:18:28;;;;;;;22.33;5.57;;;15.10;85.60;;;;;;4994516;28;20061;-80
2023/04/25 05:20:54;;;;;;;27.98;6.35;;;15.10;85.40;;;;;;4995565;28;20134;-79
2023/04/25 05:23:19;;;;;;;23.00;5.85;;;15.20;85.40;;;;;;4995400;28;20081;-79
2023/04/25 05:25:45;;;;;;;18.55;5.95;;;15.30;85.20;;;;;;4995509;28;20038;-80
2023/04/25 05:28:12;;;;;;;15.27;5.13;;;15.30;85.80;;;;;;4977897;28;20190;-81
2023/04/25 05:30:38;;;;;;;18.83;5.10;;;15.30;85.00;;;;;;4995472;28;20047;-80
2023/04/25 05:33:04;;;;;;;20.70;5.75;;;15.40;85.20;;;;;;4977220;28;20042;-79
2023/04/25 05:35:30;;;;;;;19.52;5.95;;;15.40;85.10;;;;;;4995943;28;20030;-80
2023/04/25 05:37:56;;;;;;;18.30;5.50;;;15.40;84.90;;;;;;4995360;28;20038;-80
2023/04/25 05:40:21;;;;;;;20.60;6.05;;;15.60;85.00;;;;;;4993897;28;20065;-78
2023/04/25 05:42:47;;;;;;;20.00;6.75;;;15.70;84.50;;;;;;4994646;28;20043;-77
2023/04/25 05:45:13;;;;;;;17.35;5.15;;;15.90;84.40;;;;;;4994819;28;20113;-79
2023/04/25 05:47:38;;;;;;;24.05;7.20;;;16.10;83.80;;;;;;4993613;28;20081;-79
2023/04/25 05:50:05;;;;;;;17.27;5.45;;;16.40;83.10;;;;;;4995478;28;20065;-78
2023/04/25 05:52:30;;;;;;;21.67;6.28;;;16.60;82.50;;;;;;4995273;28;20401;-78
2023/04/25 05:54:56;;;;;;;16.52;5.15;;;16.80;81.70;;;;;;4994711;28;20038;-80
2023/04/25 05:57:26;;;;;;;26.70;5.97;;;17.00;81.10;;;;;;4994573;28;20039;-78
2023/04/25 05:59:52;;;;;;;18.23;5.38;;;17.00;80.60;;;;;;4994912;28;20092;-80
2023/04/25 06:02:22;;;;;;;21.80;6.05;;;17.10;80.80;;;;;;4994312;28;20075;-78
2023/04/25 06:04:51;;;;;;;16.80;5.70;;;17.40;80.50;;;;;;4994163;28;20034;-77
2023/04/25 06:07:17;;;;;;;20.40;5.25;;;17.60;79.10;;;;;;4994074;28;20030;-79
2023/04/25 06:09:44;;;;;;;20.70;5.32;;;17.60;78.70;;;;;;4994118;28;20045;-78
2023/04/25 06:12:10;;;;;;;24.45;5.65;;;17.90;78.60;;;;;;4993988;28;20030;-78
2023/04/25 06:14:36;;;;;;;21.80;5.03;;;18.10;77.60;;;;;;4994001;28;20100;-79
2023/04/25 06:17:06;;;;;;;19.50;5.25;;;18.20;77.00;;;;;;4993906;28;20093;-77
2023/04/25 06:19:33;;;;;;;17.02;5.13;;;18.40;76.30;;;;;;4976236;28;20440;-77
2023/04/25 06:21:59;;;;;;;20.27;5.78;;;18.60;75.80;;;;;;4993796;28;20038;-80
2023/04/25 06:24:24;;;;;;;22.27;5.55;;;18.80;74.90;;;;;;4994530;28;20036;-79
2023/04/25 06:26:50;;;;;;;19.05;4.60;;;19.00;74.50;;;;;;4996077;28;20109;-80
2023/04/25 06:29:16;;;;;;;18.40;4.65;;;19.20;74.20;;;;;;4998860;28;20103;-79
2023/04/25 06:31:41;;;;;;;17.58;5.35;;;19.40;73.40;;;;;;4994779;28;20066;-78
2023/04/25 06:34:07;;;;;;;18.48;4.82;;;19.30;72.70;;;;;;4993704;28;20030;-79
2023/04/25 06:36:33;;;;;;;23.70;4.90;;;19.20;73.20;;;;;;4993677;28;20121;-78
2023/04/25 06:38:58;;;;;;;12.45;4.63;;;19.30;73.30;;;;;;4995059;28;20034;-78
2023/04/25 06:41:24;;;;;;;16.80;5.25;;;19.50;72.90;;;;;;4994630;28;20074;-79
2023/04/25 06:43:50;;;;;;;23.05;5.57;;;19.50;72.10;;;;;;4976017;28;20038;-79
2023/04/25 06:46:16;;;;;;;19.55;5.40;;;19.70;72.50;;;;;;4993456;28;20061;-79
2023/04/25 06:48:41;;;;;;;22.92;5.55;;;19.90;71.90;;;;;;4993590;28;20392;-80
2023/04/25 06:51:07;;;;;;;20.02;5.43;;;20.10;71.50;;;;;;4993187;28;20035;-80
2023/04/25 06:53:33;;;;;;;20.38;5.60;;;20.30;71.00;;;;;;4993120;28;20088;-79
2023/04/25 06:55:58;;;;;;;22.05;5.07;;;20.50;70.40;;;;;;4993377;28;20417;-79
2023/04/25 06:58:25;;;;;;;20.27;5.07;;;20.60;70.00;;;;;;4993398;28;20056;-80
2023/04/25 07:00:51;;;;;;;23.10;5.10;;;20.60;70.10;;;;;;4993270;28;20186;-81
2023/04/25 07:03:17;;;;;;;16.90;4.85;;;20.60;69.90;;;;;;4975932;28;20158;-80
2023/04/25 07:05:43;;;;;;;23.50;5.00;;;20.60;69.30;;;;;;4993359;28;20034;-80
2023/04/25 07:08:09;;;;;;;20.65;5.10;;;20.60;69.00;;;;;;4993452;28;20437;-79
2023/04/25 07:10:34;;;;;;;21.15;4.68;;;20.70;69.00;;;;;;4993372;28;20061;-80
2023/04/25 07:13:00;;;;;;;18.63;3.78;;;20.70;68.50;;;;;;4993550;28;20472;-80
2023/04/25 07:15:26;;;;;;;14.95;3.90;;;20.60;68.40;;;;;;4994104;28;20031;-79
2023/04/25 07:17:51;;;;;;;18.27;4.20;;;20.60;67.90;;;;;;4994298;28;20469;-81
2023/04/25 07:20:17;;;;;;;23.13;4.32;;;20.60;67.60;;;;;;4996317;28;20042;-79
2023/04/25 07:22:43;;;;;;;21.25;3.80;;;20.40;68.00;;;;;;5003063;28;20050;-81
2023/04/25 07:25:09;;;;;;;15.40;3.63;;;20.30;67.90;;;;;;4998648;28;20384;-79
2023/04/25 07:27:35;;;;;;;22.55;4.35;;;20.20;67.80;;;;;;5008768;28;20047;-80
2023/04/25 07:30:01;;;;;;;22.08;4.13;;;20.20;67.90;;;;;;4994995;28;20169;-80
2023/04/25 07:32:26;;;;;;;18.45;4.25;;;20.10;68.30;;;;;;5008477;28;20049;-81
2023/04/25 07:34:52;;;;;;;19.10;4.38;;;20.00;68.20;;;;;;4993489;28;20042;-80
2023/04/25 07:37:18;;;;;;;16.90;3.67;;;19.90;68.50;;;;;;4993124;28;20066;-80
2023/04/25 07:39:45;;;;;;;15.65;3.72;;;19.90;68.40;;;;;;4993545;28;20018;-80
2023/04/25 07:42:11;;;;;;;15.30;3.42;;;19.90;68.40;;;;;;4996953;28;20125;-82
2023/04/25 07:44:40;;;;;;;16.95;4.05;;;19.90;68.20;;;;;;4997106;28;20066;-80
2023/04/25 07:47:10;;;;;;;17.95;3.67;;;19.90;68.50;;;;;;4996763;28;20035;-81
2023/04/25 07:49:36;;;;;;;17.38;4.50;;;19.90;68.00;;;;;;4996924;28;20445;-81
2023/04/25 07:52:04;;;;;;;23.42;4.22;;;19.90;67.80;;;;;;4996892;28;20022;-81
2023/04/25 07:54:29;;;;;;;15.48;3.45;;;20.00;67.90;;;;;;4979151;28;20180;-79
2023/04/25 07:56:56;;;;;;;16.52;3.67;;;20.00;67.80;;;;;;4996644;28;20520;-79
2023/04/25 07:59:22;;;;;;;19.52;4.75;;;20.00;67.70;;;;;;4996512;28;20034;-80
2023/04/25 08:01:47;;;;;;;20.42;3.83;;;20.10;67.80;;;;;;4996573;28;20038;-81
2023/04/25 08:04:13;;;;;;;17.92;3.92;;;20.20;67.60;;;;;;4996065;28;20097;-78
2023/04/25 08:06:42;;;;;;;22.90;4.28;;;20.20;67.30;;;;;;4996516;28;20133;-80
2023/04/25 08:09:09;;;;;;;19.20;4.05;;;20.30;66.90;;;;;;4996122;28;20139;-80
2023/04/25 08:11:35;;;;;;;16.48;3.90;;;20.30;66.50;;;;;;4996317;28;20041;-81
2023/04/25 08:14:01;;;;;;;19.08;4.18;;;20.40;66.60;;;;;;4978492;28;20034;-77
2023/04/25 08:16:27;;;;;;;21.73;4.13;;;20.40;66.20;;;;;;4996525;28;20460;-80
2023/04/25 08:18:53;;;;;;;17.38;3.65;;;20.40;66.00;;;;;;4996627;28;20070;-78
2023/04/25 08:21:19;;;;;;;17.08;3.88;;;20.40;65.40;;;;;;4996208;28;20086;-80
2023/04/25 08:23:45;;;;;;;14.73;3.95;;;20.50;65.30;;;;;;4996272;28;20480;-80
2023/04/25 08:26:10;;;;;;;15.68;3.92;;;20.50;65.40;;;;;;4996357;28;20030;-79
2023/04/25 08:28:36;;;;;;;14.55;3.50;;;20.60;65.00;;;;;;4996117;28;20492;-80
2023/04/25 08:31:02;;;;;;;18.58;3.72;;;20.40;65.10;;;;;;4988897;28;20136;-80
2023/04/25 08:33:28;;;;;;;19.65;3.85;;;20.40;65.40;;;;;;5000444;28;20049;-80
2023/04/25 08:35:54;;;;;;;18.88;4.18;;;20.30;65.50;;;;;;4998693;28;20034;-80
2023/04/25 08:38:21;;;;;;;18.20;4.10;;;20.40;65.40;;;;;;4996535;28;20046;-81
2023/04/25 08:40:52;;;;;;;19.65;3.88;;;20.40;65.10;;;;;;4996432;28;20037;-80
2023/04/25 08:43:19;;;;;;;16.05;3.40;;;20.40;65.10;;;;;;4995796;28;20530;-80
2023/04/25 08:45:45;;;;;;;17.80;3.63;;;20.40;65.40;;;;;;4995564;28;20041;-80
2023/04/25 08:48:13;;;;;;;15.38;3.15;;;20.40;64.90;;;;;;4996096;28;20122;-80
2023/04/25 08:50:51;;;;;;;14.90;3.55;;;20.40;65.00;;;;;;4996218;28;20037;-80
2023/04/25 08:53:21;;;;;;;13.80;3.35;;;20.40;64.70;;;;;;4996637;28;20500;-81
2023/04/25 08:55:48;;;;;;;15.95;3.10;;;20.50;64.70;;;;;;4996654;28;20030;-80
2023/04/25 08:58:15;;;;;;;15.63;3.80;;;20.50;64.50;;;;;;4998113;28;20042;-82
2023/04/25 09:00:41;;;;;;;18.90;3.70;;;20.60;64.20;;;;;;5006862;28;20027;-80
2023/04/25 09:03:06;;;;;;;19.83;3.42;;;20.70;64.00;;;;;;4978309;28;20053;-80
2023/04/25 09:05:36;;;;;;;17.02;3.92;;;20.80;63.60;;;;;;4995243;28;20113;-82
2023/04/25 09:08:02;;;;;;;19.00;3.75;;;20.80;63.30;;;;;;4995341;28;20046;-79
2023/04/25 09:10:28;;;;;;;18.52;4.50;;;20.80;63.40;;;;;;4993823;28;20114;-79
2023/04/25 09:13:08;;;;;;;12.70;3.17;;;20.80;63.30;;;;;;4995116;28;20041;-80
2023/04/25 09:15:48;;;;;;;20.02;4.07;;;20.80;63.40;;;;;;4995040;28;20034;-79
2023/04/25 09:18:23;;;;;;;14.35;3.63;;;20.80;63.00;;;;;;4994835;28;20101;-79
2023/04/25 09:20:49;;;;;;;17.75;3.88;;;20.80;62.80;;;;;;4994967;28;20076;-80
2023/04/25 09:23:15;;;;;;;15.02;4.22;;;20.80;62.60;;;;;;4995071;28;20133;-79
2023/04/25 09:25:42;;;;;;;14.10;3.30;;;20.70;62.50;;;;;;4995083;28;20030;-81
2023/04/25 09:28:08;;;;;;;15.40;2.92;;;20.70;62.20;;;;;;4993325;28;20042;-80
2023/04/25 09:30:36;;;;;;;18.30;3.45;;;20.70;62.40;;;;;;4994883;28;20047;-79
2023/04/25 09:33:10;;;;;;;14.82;2.95;;;20.70;62.10;;;;;;4995081;28;20034;-80
2023/04/25 09:35:55;;;;;;;;;;;20.70;61.60;;;;;;4995642;28;20040;-80
2023/04/25 09:38:21;;;;;;;13.40;3.13;;;20.60;61.40;;;;;;4994451;28;19992;-81
2023/04/25 09:40:49;;;;;;;13.15;3.30;;;20.70;62.10;;;;;;4994352;28;20034;-81
2023/04/25 09:43:21;;;;;;;12.32;3.17;;;20.70;62.10;;;;;;4994555;28;20118;-81
2023/04/25 09:45:47;;;;;;;14.57;3.25;;;20.70;61.60;;;;;;4994600;28;20065;-80
2023/04/25 09:48:21;;;;;;;15.57;2.75;;;20.70;60.80;;;;;;4994562;28;20473;-79
2023/04/25 09:51:06;;;;;;;13.25;3.08;;;20.80;60.80;;;;;;4996107;28;20113;-81
2023/04/25 09:53:36;;;;;;;14.45;3.55;;;20.80;60.60;;;;;;4995773;28;20035;-80
2023/04/25 09:56:06;;;;;;;13.00;3.60;;;20.80;61.00;;;;;;4994748;28;20034;-80
2023/04/25 09:58:33;;;;;;;19.02;2.88;;;20.90;60.50;;;;;;4994810;28;20089;-80
2023/04/25 10:01:02;;;;;;;15.43;3.25;;;20.90;59.40;;;;;;4994742;28;20039;-82
2023/04/25 10:03:31;;;;;;;10.77;3.00;;;21.00;58.90;;;;;;4998326;28;20658;-78
2023/04/25 10:05:59;;;;;;;9.27;2.70;;;21.00;58.90;;;;;;4997547;28;20027;-79
2023/04/25 10:08:29;;;;;;;13.02;3.30;;;21.00;58.70;;;;;;4996705;28;20074;-79
2023/04/25 10:10:55;;;;;;;11.15;2.83;;;21.10;58.50;;;;;;4997278;28;20031;-79
2023/04/25 10:13:22;;;;;;;11.20;2.97;;;21.20;58.20;;;;;;4996983;28;20400;-80
2023/04/25 10:15:48;;;;;;;11.75;2.35;;;21.30;58.00;;;;;;4996862;28;20093;-81
2023/04/25 10:18:15;;;;;;;11.88;3.03;;;21.50;57.50;;;;;;5000753;28;20034;-80
2023/04/25 10:20:40;;;;;;;12.75;2.95;;;21.60;57.40;;;;;;4997793;28;20027;-80
2023/04/25 10:23:13;;;;;;;11.55;3.38;;;21.60;58.00;;;;;;4997839;28;20054;-79
2023/04/25 10:25:40;;;;;;;12.75;2.78;;;21.70;57.10;;;;;;4995448;28;20030;-80
2023/04/25 10:28:06;;;;;;;16.58;3.10;;;21.80;56.90;;;;;;4993833;28;20061;-80
2023/04/25 10:30:32;;;;;;;10.88;2.70;;;21.90;57.10;;;;;;4995697;28;20089;-81
2023/04/25 10:32:59;;;;;;;8.70;2.35;;;21.90;56.60;;;;;;4995566;28;20026;-80
2023/04/25 10:35:30;;;;;;;12.45;2.80;;;22.10;56.50;;;;;;4982433;28;20092;-79
2023/04/25 10:38:12;;;;;;;8.65;2.38;;;22.10;56.30;;;;;;5001092;28;20035;-79
2023/04/25 10:40:38;;;;;;;12.23;2.60;;;22.10;55.30;;;;;;4993611;28;20558;-80
2023/04/25 10:43:43;;;;;;;13.35;2.78;;;22.20;55.60;;;;;;4994907;28;20038;-80
2023/04/25 10:46:30;;;;;;;13.70;2.55;;;22.30;55.40;;;;;;4991033;28;20030;-80
2023/04/25 10:48:59;;;;;;;13.15;2.80;;;22.50;54.80;;;;;;4997175;28;20085;-81
2023/04/25 10:51:36;;;;;;;11.88;2.80;;;22.60;55.00;;;;;;4995494;28;20030;-80
2023/04/25 10:54:06;;;;;;;14.55;3.22;;;22.90;55.10;;;;;;4995463;28;20032;-81
2023/04/25 10:56:38;;;;;;;10.30;2.42;;;23.00;54.80;;;;;;4993440;28;20523;-80
2023/04/25 10:59:16;;;;;;;12.75;2.70;;;23.10;54.60;;;;;;4995738;28;20042;-80
2023/04/25 11:01:43;;;;;;;11.00;2.92;;;23.10;54.50;;;;;;4995351;28;20058;-78
2023/04/25 11:04:22;;;;;;;13.60;3.10;;;23.10;54.60;;;;;;4999163;28;20138;-79
2023/04/25 11:07:04;;;;;;;12.23;2.88;;;23.20;54.90;;;;;;4981929;28;20042;-79
2023/04/25 11:09:30;;;;;;;10.88;2.40;;;23.30;54.40;;;;;;4998448;28;20034;-80
2023/04/25 11:12:00;;;;;;;10.38;2.67;;;23.40;54.70;;;;;;4997564;28;20041;-78
2023/04/25 11:14:26;;;;;;;14.25;4.00;;;23.40;54.50;;;;;;4995634;28;20038;-78
2023/04/25 11:16:59;;;;;;;11.68;3.08;;;23.50;54.70;;;;;;4995207;28;20057;-82
2023/04/25 11:19:27;;;;;;;11.57;3.00;;;23.40;54.40;;;;;;4993749;28;20068;-80
2023/04/25 11:22:00;;;;;;;12.02;3.05;;;23.40;54.70;;;;;;4993092;28;20038;-78
2023/04/25 11:24:30;;;;;;;;;;;23.40;54.70;;;;;;4993336;28;20504;-80
2023/04/25 11:26:57;;;;;;;12.65;3.33;;;23.40;54.00;;;;;;4993341;28;20001;-79
2023/04/25 11:29:26;;;;;;;14.30;2.80;;;23.50;55.00;;;;;;4993207;28;20542;-79
2023/04/25 11:31:53;;;;;;;14.52;2.90;;;23.40;54.50;;;;;;4993211;28;20040;-80
2023/04/25 11:34:19;;;;;;;16.25;3.33;;;23.40;55.00;;;;;;4993022;28;20031;-80
2023/04/25 11:36:46;;;;;;;12.60;3.22;;;23.50;55.00;;;;;;4993074;28;20117;-80
2023/04/25 11:39:12;;;;;;;17.42;3.67;;;23.40;54.60;;;;;;4992573;28;20110;-80
2023/04/25 11:41:38;;;;;;;12.68;3.33;;;23.40;54.90;;;;;;4993037;28;20102;-79
2023/04/25 11:44:06;;;;;;;12.35;3.45;;;23.30;55.00;;;;;;4992682;28;20046;-80
2023/04/25 11:46:34;;;;;;;15.82;4.35;;;23.30;55.10;;;;;;4992877;28;20034;-81
2023/04/25 11:49:00;;;;;;;11.23;3.30;;;23.20;55.20;;;;;;4993350;28;20041;-79
2023/04/25 11:51:26;;;;;;;14.35;3.85;;;23.30;55.10;;;;;;4994387;28;20477;-80
2023/04/25 11:53:51;;;;;;;14.27;3.65;;;23.30;55.30;;;;;;4994437;28;20123;-80
2023/04/25 11:56:17;;;;;;;13.00;3.90;;;23.40;56.10;;;;;;4994244;28;20027;-80
2023/04/25 11:58:59;;;;;;;13.57;3.67;;;23.50;55.20;;;;;;4994943;28;20066;-79
2023/04/25 12:01:33;;;;;;;12.73;3.15;;;23.50;55.10;;;;;;4994907;28;20035;-80
2023/04/25 12:04:16;;;;;;;14.98;3.55;;;23.60;53.40;;;;;;4994121;28;20590;-80
2023/04/25 12:06:47;;;;;;;13.93;3.65;;;23.60;53.20;;;;;;4976134;28;20061;-79
2023/04/25 12:09:14;;;;;;;14.18;3.78;;;23.50;53.90;;;;;;4993499;28;20448;-79
2023/04/25 12:11:53;;;;;;;15.73;3.95;;;23.40;53.40;;;;;;4995206;28;20043;-78
2023/04/25 12:14:27;;;;;;;14.15;4.10;;;23.40;54.00;;;;;;4994480;28;20034;-80
2023/04/25 12:16:59;;;;;;;16.23;4.95;;;23.40;53.50;;;;;;4994229;28;20045;-80
2023/04/25 12:19:25;;;;;;;12.57;3.60;;;23.40;52.60;;;;;;4994258;28;20030;-79
2023/04/25 12:21:52;;;;;;;13.05;3.38;;;23.40;52.60;;;;;;4994575;28;20045;-80
2023/04/25 12:24:25;;;;;;;10.02;3.58;;;23.50;52.30;;;;;;4993998;28;20399;-80
2023/04/25 12:27:05;;;;;;;14.00;4.20;;;23.50;53.00;;;;;;4995209;28;20471;-78
2023/04/25 12:29:32;;;;;;;16.33;3.85;;;23.60;53.40;;;;;;4996111;28;20077;-79
2023/04/25 12:31:59;;;;;;;13.98;3.78;;;23.60;54.00;;;;;;4996715;28;20042;-79
2023/04/25 12:34:25;;;;;;;14.15;4.25;;;23.60;54.20;;;;;;4996514;28;20028;-79
2023/04/25 12:36:52;;;;;;;13.25;3.70;;;23.70;54.00;;;;;;4996794;28;20049;-79
2023/04/25 12:39:22;;;;;;;13.35;3.92;;;23.90;54.40;;;;;;4997389;28;20030;-79